Time;durP1;ratioP1;P1;durP2;ratioP2;P2;SDS_P1;SDS_P2;PMS_P1;PMS_P2;Temp;Humidity;BMP_temperature;BMP_pressure;BME280_temperature;BME280_humidity;BME280_pressure;Samples;Min_cycle;Max_cycle;Signal;HPM_P1;HPM_P2
2023/05/13 00:02:02;;;;;;;4.30;3.77;;;;;;;10.58;78.92;147748.16;5090991;28;20294;-53
2023/05/13 00:04:28;;;;;;;4.27;3.67;;;;;;;10.55;79.51;147741.88;5090718;28;20260;-53
2023/05/13 00:06:55;;;;;;;3.37;3.17;;;;;;;10.60;79.51;147751.94;5090928;28;20204;-52
2023/05/13 00:09:22;;;;;;;4.03;3.73;;;;;;;10.70;79.40;147778.34;5091038;28;20225;-57
2023/05/13 00:11:49;;;;;;;3.97;3.60;;;;;;;10.70;79.82;147778.34;5090987;28;20592;-56
2023/05/13 00:14:17;;;;;;;4.60;4.20;;;;;;;10.60;79.91;147753.19;5090845;28;20196;-53
2023/05/13 00:16:44;;;;;;;5.17;3.37;;;;;;;10.57;80.82;147744.38;5090728;28;20191;-53
2023/05/13 00:19:11;;;;;;;3.60;3.30;;;;;;;10.61;80.80;147754.47;5090860;28;20191;-57
2023/05/13 00:21:38;;;;;;;3.70;3.40;;;;;;;10.61;81.20;147755.66;5090824;28;20615;-57
2023/05/13 00:24:06;;;;;;;3.33;3.13;;;;;;;10.57;80.89;147744.38;5090601;28;20191;-56
2023/05/13 00:26:33;;;;;;;3.80;3.50;;;;;;;10.68;80.55;147773.31;5090546;28;20192;-53
2023/05/13 00:29:00;;;;;;;3.77;3.47;;;;;;;10.64;80.68;147763.22;5090533;28;20609;-54
2023/05/13 00:31:28;;;;;;;4.10;3.27;;;;;;;10.60;81.53;147751.94;5090538;28;20199;-55
2023/05/13 00:33:55;;;;;;;4.07;3.27;;;;;;;10.60;81.61;147753.19;5090693;28;20286;-53
2023/05/13 00:36:22;;;;;;;5.17;3.30;;;;;;;10.65;81.58;147765.75;5090251;28;20191;-56
2023/05/13 00:38:49;;;;;;;3.30;3.10;;;;;;;10.69;81.57;147775.81;5090421;28;20675;-55
2023/05/13 00:41:17;;;;;;;5.23;3.43;;;;;;;10.72;81.76;147782.13;5090505;28;20201;-55
2023/05/13 00:43:44;;;;;;;6.33;3.60;;;;;;;10.70;81.46;147778.34;5090305;28;20199;-54
2023/05/13 00:46:11;;;;;;;6.53;3.43;;;;;;;10.70;82.04;147777.09;5090387;28;20237;-56
2023/05/13 00:48:40;;;;;;;3.73;3.43;;;;;;;10.70;82.53;147778.34;5090077;28;20195;-56
2023/05/13 00:51:07;;;;;;;4.13;3.60;;;;;;;10.77;82.50;147795.94;5090037;28;20235;-56
2023/05/13 00:53:34;;;;;;;7.43;3.67;;;;;;;10.68;82.07;147772.03;5090373;28;20195;-55
2023/05/13 00:56:01;;;;;;;3.60;3.30;;;;;;;10.71;82.84;147779.59;5090302;28;20209;-55
2023/05/13 00:58:28;;;;;;;4.17;3.33;;;;;;;10.75;82.98;147790.88;5090062;28;20213;-55
2023/05/13 01:01:03;;;;;;;4.37;3.30;;;;;;;10.82;83.25;147808.53;5090104;28;20196;-56
2023/05/13 01:03:35;;;;;;;3.90;3.60;;;;;;;10.85;82.98;147816.03;5090406;28;20205;-56
2023/05/13 01:06:09;;;;;;;3.93;3.53;;;;;;;10.77;83.40;147794.66;5089998;28;20206;-56
2023/05/13 01:08:45;;;;;;;6.27;3.77;;;;;;;10.75;83.92;147790.88;5090133;28;20191;-57
2023/05/13 01:11:17;;;;;;;3.93;3.43;;;;;;;10.74;84.28;147787.13;5090021;28;20321;-55
2023/05/13 01:13:48;;;;;;;5.30;3.70;;;;;;;10.83;84.01;147811.03;5090250;28;20285;-56
2023/05/13 01:16:21;;;;;;;4.20;3.33;;;;;;;10.82;84.43;147808.53;5089913;28;20199;-56
2023/05/13 01:18:52;;;;;;;5.60;3.77;;;;;;;10.79;84.69;147800.97;5089926;28;20706;-56
2023/05/13 01:21:26;;;;;;;3.57;3.37;;;;;;;10.71;85.20;147780.88;5089936;28;20206;-56
2023/05/13 01:23:52;;;;;;;5.90;4.60;;;;;;;10.81;85.26;147806.00;5089762;28;20199;-56
2023/05/13 01:26:20;;;;;;;5.53;4.83;;;;;;;10.75;86.18;147790.88;5089686;28;20257;-55
2023/05/13 01:28:47;;;;;;;6.20;5.33;;;;;;;10.77;86.23;147795.94;5090267;28;20199;-57
2023/05/13 01:31:15;;;;;;;4.97;4.03;;;;;;;10.78;86.18;147798.44;5089714;28;20227;-54
2023/05/13 01:33:43;;;;;;;6.13;4.23;;;;;;;10.71;86.74;147780.88;5089862;28;20666;-55
2023/05/13 01:36:10;;;;;;;5.13;3.93;;;;;;;10.73;86.92;147784.59;5089418;28;20210;-57
2023/05/13 01:38:40;;;;;;;4.47;3.53;;;;;;;10.71;86.82;147779.59;5089765;28;20291;-54
2023/05/13 01:41:07;;;;;;;4.30;3.50;;;;;;;10.72;86.94;147782.13;5089848;28;20231;-54
2023/05/13 01:43:34;;;;;;;4.23;3.77;;;;;;;10.76;87.04;147792.16;5089737;28;20199;-54
2023/05/13 01:46:01;;;;;;;8.13;3.57;;;;;;;10.75;87.40;147790.88;5090002;28;20693;-54
2023/05/13 01:48:28;;;;;;;7.17;3.50;;;;;;;10.72;89.26;147782.13;5089644;28;20199;-54
2023/05/13 01:50:56;;;;;;;4.87;3.90;;;;;;;10.71;89.51;147779.59;5089488;28;20231;-54
2023/05/13 01:53:22;;;;;;;6.13;3.70;;;;;;;10.69;89.79;147774.56;5089628;28;20200;-56
2023/05/13 01:55:51;;;;;;;5.37;3.83;;;;;;;10.74;89.55;147788.38;5089307;28;20667;-57
2023/05/13 01:58:17;;;;;;;11.90;4.07;;;;;;;10.76;89.03;147793.41;5089520;28;20199;-57
2023/05/13 02:00:44;;;;;;;7.07;3.67;;;;;;;10.73;89.32;147785.84;5089778;28;20274;-57
2023/05/13 02:03:11;;;;;;;4.90;4.13;;;;;;;10.74;89.73;147788.38;5089701;28;20292;-57
2023/05/13 02:05:38;;;;;;;5.37;3.90;;;;;;;10.79;88.90;147800.97;5089536;28;20196;-57
2023/05/13 02:08:06;;;;;;;5.80;4.07;;;;;;;10.80;89.04;147802.22;5089808;28;20242;-57
2023/05/13 02:10:33;;;;;;;5.37;3.70;;;;;;;10.82;89.03;147808.53;5089515;28;20219;-58
2023/05/13 02:13:02;;;;;;;6.07;3.93;;;;;;;10.83;89.71;147809.78;5089635;28;20664;-54
2023/05/13 02:15:29;;;;;;;4.60;4.07;;;;;;;10.87;89.27;147819.81;5092004;28;20203;-57
2023/05/13 02:17:56;;;;;;;5.23;3.63;;;;;;;10.90;89.53;147828.63;5093006;28;20195;-54
2023/05/13 02:20:23;;;;;;;6.30;3.97;;;;;;;10.91;89.75;147831.16;5092987;28;20198;-57
2023/05/13 02:22:50;;;;;;;4.87;4.27;;;;;;;10.91;89.82;147831.16;5093043;28;20195;-57
2023/05/13 02:25:17;;;;;;;6.33;3.67;;;;;;;10.95;90.07;147838.72;5093072;28;20199;-54
2023/05/13 02:27:44;;;;;;;6.70;3.60;;;;;;;10.90;90.10;147828.63;5092907;28;20206;-56
2023/05/13 02:30:12;;;;;;;7.77;3.73;;;;;;;10.85;90.40;147814.78;5092678;28;20230;-54
2023/05/13 02:32:41;;;;;;;8.07;3.93;;;;;;;11.04;89.22;147862.59;5092794;28;20198;-54
2023/05/13 02:35:09;;;;;;;6.27;3.80;;;;;;;11.02;89.40;147857.56;5092689;28;20326;-54
2023/05/13 02:37:36;;;;;;;5.70;4.50;;;;;;;10.98;90.75;147846.22;5092813;28;20202;-54
2023/05/13 02:40:03;;;;;;;7.23;3.87;;;;;;;11.03;91.54;147860.09;5092627;28;20681;-56
2023/05/13 02:42:30;;;;;;;7.90;4.07;;;;;;;10.97;91.21;147843.72;5090734;28;20199;-54
2023/05/13 02:44:57;;;;;;;8.93;4.20;;;;;;;11.02;91.48;147856.31;5092454;28;20207;-54
2023/05/13 02:47:25;;;;;;;6.93;3.80;;;;;;;11.11;90.92;147878.94;5092648;28;20191;-53
2023/05/13 02:49:54;;;;;;;4.57;3.97;;;;;;;11.13;90.79;147883.97;5092084;28;20237;-53
2023/05/13 02:52:20;;;;;;;8.17;4.10;;;;;;;11.11;90.93;147880.19;5092404;28;20194;-54
2023/05/13 02:54:47;;;;;;;7.67;4.33;;;;;;;11.11;91.60;147880.19;5092299;28;20198;-52
2023/05/13 02:57:15;;;;;;;5.70;4.30;;;;;;;11.10;91.71;147877.69;5092014;28;20198;-53
2023/05/13 02:59:42;;;;;;;7.80;4.17;;;;;;;11.12;91.71;147881.47;5092569;28;20268;-59
2023/05/13 03:02:09;;;;;;;6.87;4.30;;;;;;;11.12;92.18;147881.47;5092327;28;20198;-57
2023/05/13 03:04:37;;;;;;;4.10;3.80;;;;;;;11.16;92.31;147891.53;5092316;28;20195;-56
2023/05/13 03:07:04;;;;;;;4.80;4.40;;;;;;;11.19;92.40;147899.06;5092173;28;20205;-53
2023/05/13 03:09:33;;;;;;;6.33;3.80;;;;;;;11.23;91.62;147910.41;5092098;28;20213;-54
2023/05/13 03:12:00;;;;;;;5.40;3.97;;;;;;;11.29;91.26;147924.22;5091462;28;20268;-55
2023/05/13 03:14:28;;;;;;;5.00;4.53;;;;;;;11.33;91.28;147933.03;5091125;28;20203;-53
2023/05/13 03:16:55;;;;;;;7.37;4.57;;;;;;;11.39;91.30;147948.16;5091507;28;20732;-53
2023/05/13 03:19:21;;;;;;;8.57;4.27;;;;;;;11.37;90.77;147944.38;5091883;28;20195;-57
2023/05/13 03:21:50;;;;;;;4.80;4.23;;;;;;;11.44;90.80;147961.97;5092113;28;20282;-56
2023/05/13 03:24:17;;;;;;;6.90;4.07;;;;;;;11.46;90.59;147967.00;5091609;28;20203;-57
2023/05/13 03:26:43;;;;;;;7.93;3.60;;;;;;;11.57;89.96;147993.44;5091850;28;20202;-57
2023/05/13 03:29:10;;;;;;;11.13;4.33;;;;;;;11.63;89.41;148009.78;5091841;28;20199;-54
2023/05/13 03:31:37;;;;;;;7.30;4.77;;;;;;;11.70;88.83;148024.91;5091641;28;20219;-53
2023/05/13 03:34:04;;;;;;;5.13;4.00;;;;;;;11.74;88.27;148036.19;5091940;28;20218;-54
2023/05/13 03:36:32;;;;;;;9.70;5.17;;;;;;;11.76;87.69;148040.03;5091518;28;20665;-53
2023/05/13 03:39:00;;;;;;;5.17;4.70;;;;;;;11.87;87.40;148068.97;5091582;28;20282;-53
2023/05/13 03:41:28;;;;;;;5.13;4.17;;;;;;;11.87;87.73;148067.72;5091642;28;20195;-54
2023/05/13 03:43:55;;;;;;;6.73;4.50;;;;;;;12.02;87.83;148104.25;5091678;28;20278;-57
2023/05/13 03:46:22;;;;;;;5.70;5.20;;;;;;;12.17;86.60;148142.03;5091286;28;20191;-53
2023/05/13 03:48:49;;;;;;;9.40;6.53;;;;;;;12.22;87.29;148155.84;5091254;28;20195;-54
2023/05/13 03:51:16;;;;;;;9.27;6.60;;;;;;;12.61;86.20;148251.56;5091063;28;20227;-53
2023/05/13 03:53:43;;;;;;;9.37;6.20;;;;;;;13.24;81.92;148407.78;5091577;28;20198;-54
2023/05/13 03:56:11;;;;;;;7.03;5.87;;;;;;;13.76;78.11;148537.63;5091408;28;20195;-53
2023/05/13 03:58:38;;;;;;;17.07;6.30;;;;;;;14.65;74.53;148759.59;5090852;28;20195;-54
2023/05/13 04:01:07;;;;;;;7.60;5.57;;;;;;;15.61;69.93;148998.09;5091278;28;20241;-53
2023/05/13 04:03:34;;;;;;;14.43;9.23;;;;;;;16.48;66.13;149215.25;5090714;28;20290;-58
2023/05/13 04:06:01;;;;;;;11.47;9.30;;;;;;;17.50;62.40;149468.00;5088966;28;20203;-57
2023/05/13 04:08:28;;;;;;;13.90;9.93;;;;;;;18.36;59.00;149683.03;5089232;28;20195;-53
2023/05/13 04:10:56;;;;;;;13.77;11.25;;;;;;;19.06;56.54;149858.94;5090901;28;20245;-58
2023/05/13 04:13:24;;;;;;;13.07;10.63;;;;;;;19.55;54.09;149981.72;5091007;28;20199;-58
2023/05/13 04:15:53;;;;;;;13.35;9.50;;;;;;;19.70;53.48;150017.16;5090863;28;20195;-57
2023/05/13 04:18:20;;;;;;;13.38;8.75;;;;;;;20.02;52.88;150098.19;5090742;28;20295;-54
2023/05/13 04:20:46;;;;;;;11.20;9.38;;;;;;;20.52;51.52;150223.63;5090629;28;20195;-53
2023/05/13 04:23:13;;;;;;;13.82;9.30;;;;;;;20.75;50.69;150280.66;5090855;28;20195;-54
2023/05/13 04:25:41;;;;;;;12.50;9.05;;;;;;;20.79;50.19;150290.75;5090765;28;20201;-53
2023/05/13 04:28:08;;;;;;;14.63;8.57;;;;;;;20.79;50.56;150289.47;5090781;28;20288;-54
2023/05/13 04:30:37;;;;;;;11.20;8.60;;;;;;;21.49;48.83;150464.41;5090652;28;20229;-54
2023/05/13 04:33:04;;;;;;;13.43;8.20;;;;;;;21.60;48.77;150493.56;5090395;28;20203;-57
2023/05/13 04:35:31;;;;;;;7.75;7.10;;;;;;;22.23;47.10;150650.88;5090718;28;20191;-57
2023/05/13 04:37:57;;;;;;;7.47;5.57;;;;;;;22.56;46.15;150732.03;5090106;28;20218;-57
2023/05/13 04:40:25;;;;;;;6.97;6.10;;;;;;;22.36;46.03;150683.78;5090650;28;20191;-55
2023/05/13 04:42:53;;;;;;;7.03;5.00;;;;;;;22.19;46.45;150640.69;5090227;28;20268;-54
2023/05/13 04:45:20;;;;;;;4.97;4.47;;;;;;;22.03;46.06;150600.09;5090396;28;20203;-52
2023/05/13 04:47:49;;;;;;;8.30;4.50;;;;;;;21.56;47.44;150483.41;5090206;28;20195;-54
2023/05/13 04:50:16;;;;;;;10.20;4.35;;;;;;;21.15;48.37;150380.72;5090135;28;20227;-53
2023/05/13 04:52:43;;;;;;;6.70;4.70;;;;;;;21.11;48.83;150369.28;5090487;28;20225;-54
2023/05/13 04:55:10;;;;;;;4.25;3.83;;;;;;;22.24;46.94;150653.34;5090418;28;20235;-54
2023/05/13 04:57:37;;;;;;;6.45;4.63;;;;;;;22.89;45.79;150814.53;5090707;28;20199;-54
2023/05/13 05:00:07;;;;;;;5.85;5.10;;;;;;;24.03;43.52;151100.16;5090255;28;20594;-54
2023/05/13 05:02:34;;;;;;;6.07;4.70;;;;;;;23.88;43.26;151064.59;5090158;28;20195;-53
2023/05/13 05:05:02;;;;;;;4.43;4.03;;;;;;;23.11;44.72;150871.63;5090196;28;20207;-53
2023/05/13 05:07:29;;;;;;;4.82;4.43;;;;;;;21.96;46.60;150583.59;5089156;28;20203;-55
2023/05/13 05:09:56;;;;;;;6.22;4.60;;;;;;;20.85;49.87;150304.72;5090138;28;20289;-56
2023/05/13 05:12:23;;;;;;;6.57;4.50;;;;;;;20.84;50.34;150303.44;5089764;28;20223;-56
2023/05/13 05:14:50;;;;;;;6.90;4.53;;;;;;;20.84;50.40;150302.16;5088837;28;20199;-56
2023/05/13 05:17:17;;;;;;;4.53;4.10;;;;;;;21.08;49.91;150361.72;5089773;28;20288;-58
2023/05/13 05:19:44;;;;;;;7.85;4.40;;;;;;;21.25;49.71;150404.84;5089551;28;20191;-57
2023/05/13 05:22:12;;;;;;;5.07;4.57;;;;;;;21.10;50.45;150366.81;5088477;28;20189;-57
2023/05/13 05:24:39;;;;;;;5.30;4.78;;;;;;;20.54;52.07;150228.66;5086908;28;20198;-55
2023/05/13 05:27:06;;;;;;;6.95;4.70;;;;;;;20.65;52.14;150256.53;5086682;28;20577;-56
2023/05/13 05:29:33;;;;;;;6.18;4.25;;;;;;;19.83;54.33;150051.34;5085845;28;20203;-56
2023/05/13 05:31:59;;;;;;;5.78;5.10;;;;;;;20.21;53.66;150146.31;5088083;28;20214;-55
2023/05/13 05:34:26;;;;;;;14.30;7.57;;;;;;;20.87;52.37;150309.78;5088280;28;20593;-56
2023/05/13 05:36:54;;;;;;;6.50;5.03;;;;;;;21.72;50.05;150524.00;5089206;28;20217;-55
2023/05/13 05:39:23;;;;;;;5.50;4.95;;;;;;;22.34;48.66;150678.75;5089709;28;20196;-57
2023/05/13 05:41:49;;;;;;;6.38;5.30;;;;;;;23.45;46.43;150955.38;5088536;28;20570;-51
2023/05/13 05:44:16;;;;;;;10.40;5.15;;;;;;;23.62;45.75;150998.56;5084969;28;20207;-53
2023/05/13 05:46:43;;;;;;;6.03;4.20;;;;;;;23.85;45.43;151055.69;5086331;28;20187;-52
2023/05/13 05:49:10;;;;;;;6.45;4.55;;;;;;;24.11;44.71;151120.44;5089435;28;20206;-55
2023/05/13 05:51:37;;;;;;;6.38;4.10;;;;;;;23.89;44.36;151067.13;5092534;28;20227;-55
2023/05/13 05:54:04;;;;;;;10.88;4.65;;;;;;;23.81;44.90;151045.56;5089765;28;20199;-54
2023/05/13 05:56:32;;;;;;;8.50;4.90;;;;;;;24.27;44.03;151161.09;5092229;28;20249;-55
2023/05/13 05:58:59;;;;;;;9.95;4.53;;;;;;;25.06;42.33;151359.31;5092419;28;20202;-54
2023/05/13 06:01:26;;;;;;;4.25;3.85;;;;;;;25.14;41.51;151379.66;5092249;28;20269;-50
2023/05/13 06:03:53;;;;;;;6.13;4.30;;;;;;;24.84;41.51;151304.63;5092690;28;20199;-50
2023/05/13 06:06:20;;;;;;;4.40;3.78;;;;;;;25.05;41.40;151356.81;5092645;28;20195;-53
2023/05/13 06:08:47;;;;;;;8.43;4.15;;;;;;;25.12;41.39;151374.56;5091825;28;20210;-58
2023/05/13 06:11:14;;;;;;;5.85;4.40;;;;;;;25.70;40.32;151518.22;5092135;28;20687;-55
2023/05/13 06:13:42;;;;;;;5.68;4.47;;;;;;;25.84;40.18;151555.09;5092673;28;20197;-51
2023/05/13 06:16:09;;;;;;;29.52;10.13;;;;;;;25.31;40.50;151421.56;5089752;28;20296;-51
2023/05/13 06:18:36;;;;;;;5.53;5.07;;;;;;;25.35;40.02;151430.47;5089588;28;20227;-52
2023/05/13 06:21:04;;;;;;;5.15;4.75;;;;;;;25.33;40.04;151427.94;5090474;28;20220;-52
2023/05/13 06:23:31;;;;;;;11.30;5.72;;;;;;;25.82;39.11;151550.00;5089289;28;20276;-50
2023/05/13 06:25:58;;;;;;;6.72;4.70;;;;;;;24.99;40.34;151341.53;5089713;28;20215;-52
2023/05/13 06:28:25;;;;;;;5.93;5.35;;;;;;;24.90;40.38;151319.91;5091708;28;20227;-56
2023/05/13 06:30:53;;;;;;;8.10;5.22;;;;;;;24.93;40.22;151326.31;5092529;28;20234;-56
2023/05/13 06:33:20;;;;;;;7.68;6.00;;;;;;;25.24;39.91;151405.06;5092162;28;20246;-56
2023/05/13 06:35:48;;;;;;;6.63;5.45;;;;;;;25.73;39.12;151525.88;5092302;28;20223;-56
2023/05/13 06:38:16;;;;;;;8.38;5.82;;;;;;;24.91;40.27;151321.16;5096656;28;20233;-56
2023/05/13 06:40:43;;;;;;;10.20;5.38;;;;;;;24.43;40.82;151200.50;5112040;28;20232;-56
2023/05/13 06:43:11;;;;;;;6.32;5.22;;;;;;;24.74;40.32;151279.22;5102724;28;20382;-52
2023/05/13 06:45:38;;;;;;;7.78;6.28;;;;;;;24.24;41.03;151154.78;5072024;28;20345;-51
2023/05/13 06:48:06;;;;;;;5.80;5.40;;;;;;;23.38;42.66;150938.84;5072271;28;20224;-52
2023/05/13 06:50:33;;;;;;;10.45;7.38;;;;;;;23.45;42.76;150955.38;5070210;28;20605;-52
2023/05/13 06:53:00;;;;;;;6.03;5.55;;;;;;;23.20;43.70;150893.19;5079186;28;20249;-51
2023/05/13 06:55:27;;;;;;;7.45;6.65;;;;;;;23.01;43.78;150846.25;5091855;28;20307;-51
2023/05/13 06:57:54;;;;;;;7.55;6.38;;;;;;;22.13;45.46;150625.47;5091559;28;20199;-51
2023/05/13 07:00:21;;;;;;;7.47;6.45;;;;;;;21.97;45.55;150586.13;5091903;28;20561;-55
2023/05/13 07:02:48;;;;;;;8.05;6.00;;;;;;;21.71;45.82;150520.19;5092289;28;20191;-52
2023/05/13 07:05:16;;;;;;;7.68;6.93;;;;;;;21.67;46.04;150510.06;5091941;28;20195;-52
2023/05/13 07:07:43;;;;;;;8.00;7.40;;;;;;;21.02;47.37;150349.03;5092283;28;20206;-51
2023/05/13 07:10:10;;;;;;;7.68;6.80;;;;;;;20.78;48.03;150286.94;5092069;28;20206;-51
2023/05/13 07:12:37;;;;;;;7.88;6.75;;;;;;;20.82;47.99;150298.38;5091993;28;20314;-51
2023/05/13 07:15:05;;;;;;;7.82;6.78;;;;;;;20.63;48.27;150250.25;5091940;28;20191;-52
2023/05/13 07:17:32;;;;;;;7.38;6.60;;;;;;;20.40;49.00;150191.97;5092000;28;20589;-55
2023/05/13 07:19:59;;;;;;;6.93;6.25;;;;;;;21.01;47.67;150346.50;5091716;28;20206;-57
2023/05/13 07:22:27;;;;;;;10.73;6.75;;;;;;;21.51;46.71;150469.50;5090328;28;20195;-56
2023/05/13 07:24:54;;;;;;;6.38;5.82;;;;;;;21.60;46.48;150493.56;5083365;28;20225;-56
2023/05/13 07:27:21;;;;;;;8.27;7.13;;;;;;;21.91;45.84;150569.63;5071239;28;20208;-56
2023/05/13 07:29:48;;;;;;;8.13;6.43;;;;;;;22.02;45.71;150597.56;5071554;28;20196;-56
2023/05/13 07:32:15;;;;;;;7.35;6.65;;;;;;;22.26;44.77;150658.44;5071419;28;20216;-57
2023/05/13 07:34:42;;;;;;;7.40;6.82;;;;;;;22.85;43.38;150805.63;5071334;28;20222;-56
2023/05/13 07:37:09;;;;;;;11.55;9.32;;;;;;;22.68;43.71;150762.47;5071197;28;20283;-56
2023/05/13 07:39:37;;;;;;;13.63;8.93;;;;;;;22.09;45.11;150615.34;5070812;28;20192;-56
2023/05/13 07:42:05;;;;;;;6.30;5.70;;;;;;;22.89;43.62;150815.81;5070055;28;20199;-56
2023/05/13 07:44:32;;;;;;;7.43;5.70;;;;;;;23.74;42.08;151029.03;5070275;28;20192;-56
2023/05/13 07:46:59;;;;;;;9.82;6.07;;;;;;;24.84;40.16;151304.63;5070611;28;20723;-55
2023/05/13 07:49:25;;;;;;;5.65;5.15;;;;;;;25.45;38.54;151455.91;5087755;28;20230;-54
2023/05/13 07:51:52;;;;;;;7.15;5.30;;;;;;;25.89;37.99;151566.50;5091170;28;20215;-60
2023/05/13 07:54:19;;;;;;;9.40;5.40;;;;;;;26.35;36.12;151682.25;5091457;28;20198;-56
2023/05/13 07:56:48;;;;;;;4.95;4.53;;;;;;;26.86;35.30;151809.47;5091622;28;20195;-56
2023/05/13 07:59:15;;;;;;;5.93;4.75;;;;;;;27.53;34.37;151977.44;5091422;28;20199;-56
2023/05/13 08:01:42;;;;;;;4.55;4.15;;;;;;;27.12;34.87;151875.63;5091136;28;20286;-55
2023/05/13 08:04:09;;;;;;;5.95;5.45;;;;;;;27.28;34.31;151915.06;5090901;28;20202;-54
2023/05/13 08:06:36;;;;;;;6.25;5.13;;;;;;;27.44;33.81;151957.03;5080207;28;20383;-55
2023/05/13 08:09:03;;;;;;;5.35;4.88;;;;;;;27.01;34.43;151848.91;5070417;28;20226;-54
2023/05/13 08:11:30;;;;;;;7.55;5.53;;;;;;;26.91;34.89;151822.16;5069643;28;20227;-55
2023/05/13 08:13:58;;;;;;;5.43;4.93;;;;;;;27.24;34.23;151904.88;5070004;28;20220;-53
2023/05/13 08:16:25;;;;;;;6.68;5.32;;;;;;;27.27;33.17;151913.81;5069931;28;20262;-54
2023/05/13 08:18:52;;;;;;;5.75;5.13;;;;;;;26.91;33.85;151823.44;5075122;28;20215;-54
2023/05/13 08:21:19;;;;;;;5.43;4.85;;;;;;;26.42;33.81;151698.78;5080664;28;20227;-53
2023/05/13 08:23:46;;;;;;;7.35;4.85;;;;;;;25.73;35.91;151527.13;5083567;28;20218;-53
2023/05/13 08:26:13;;;;;;;6.53;4.35;;;;;;;24.97;36.86;151336.44;5089896;28;20206;-53
2023/05/13 08:28:40;;;;;;;7.60;4.82;;;;;;;24.48;37.33;151214.47;5089858;28;20187;-54
2023/05/13 08:31:11;;;;;;;6.85;5.30;;;;;;;23.88;37.89;151063.31;5090645;28;20203;-54
2023/05/13 08:33:38;;;;;;;8.27;4.40;;;;;;;23.73;38.53;151026.50;5090640;28;20306;-55
2023/05/13 08:36:06;;;;;;;6.03;4.40;;;;;;;24.01;38.52;151095.06;5090798;28;20666;-54
2023/05/13 08:38:33;;;;;;;4.28;3.72;;;;;;;23.46;38.98;150957.94;5090616;28;20646;-55
2023/05/13 08:41:03;;;;;;;4.32;4.03;;;;;;;22.94;39.76;150828.47;5090425;28;20282;-56
2023/05/13 08:43:32;;;;;;;4.97;3.88;;;;;;;22.72;39.96;150772.59;5090243;28;20296;-56
2023/05/13 08:46:03;;;;;;;4.43;4.03;;;;;;;22.63;40.27;150751.03;5090365;28;20205;-55
2023/05/13 08:48:32;;;;;;;4.28;3.75;;;;;;;22.76;39.72;150782.81;5090494;28;20199;-55
2023/05/13 08:51:00;;;;;;;4.70;3.67;;;;;;;22.95;39.37;150831.00;5090163;28;20234;-53
2023/05/13 08:53:28;;;;;;;8.45;3.58;;;;;;;23.14;38.80;150879.22;5090196;28;20261;-53
2023/05/13 08:55:56;;;;;;;3.42;3.00;;;;;;;23.08;38.69;150864.00;5090364;28;20199;-53
2023/05/13 08:58:23;;;;;;;4.80;3.42;;;;;;;23.44;38.08;150954.13;5090434;28;20207;-55
2023/05/13 09:00:51;;;;;;;3.08;2.88;;;;;;;23.51;36.87;150970.63;5090479;28;20206;-56
2023/05/13 09:03:20;;;;;;;3.25;2.50;;;;;;;23.65;35.26;151006.19;5090390;28;20195;-55
2023/05/13 09:05:48;;;;;;;3.85;2.35;;;;;;;23.67;34.35;151011.28;5090256;28;20203;-56
2023/05/13 09:08:15;;;;;;;4.55;2.78;;;;;;;23.77;34.37;151035.38;5089881;28;20221;-56
2023/05/13 09:10:42;;;;;;;3.10;2.88;;;;;;;24.19;34.57;151142.03;5090037;28;20199;-55
2023/05/13 09:13:11;;;;;;;2.70;2.50;;;;;;;24.19;34.90;151140.75;5090138;28;20220;-53
2023/05/13 09:15:42;;;;;;;4.45;2.72;;;;;;;23.79;34.82;151040.47;5090021;28;20540;-53
2023/05/13 09:18:09;;;;;;;3.05;2.85;;;;;;;23.58;35.97;150988.44;5090258;28;20203;-53
2023/05/13 09:20:37;;;;;;;3.17;2.88;;;;;;;23.41;36.34;150945.22;5089687;28;20725;-55
2023/05/13 09:23:07;;;;;;;8.88;2.83;;;;;;;23.22;36.67;150897.00;5090671;28;20191;-55
2023/05/13 09:25:34;;;;;;;3.92;3.05;;;;;;;23.27;37.03;150910.94;5094203;28;20241;-54
2023/05/13 09:28:02;;;;;;;3.00;2.40;;;;;;;23.48;37.29;150962.97;5094120;28;20286;-55
2023/05/13 09:30:32;;;;;;;7.00;3.00;;;;;;;23.82;36.15;151049.31;5094034;28;20199;-55
2023/05/13 09:33:08;;;;;;;2.95;2.50;;;;;;;23.72;36.12;151023.94;5093904;28;20229;-60
2023/05/13 09:35:36;;;;;;;4.07;3.08;;;;;;;24.07;35.86;151110.28;5094086;28;20282;-55
2023/05/13 09:38:14;;;;;;;2.67;2.50;;;;;;;23.43;36.15;150950.28;5093964;28;20205;-55
2023/05/13 09:40:42;;;;;;;4.32;2.30;;;;;;;23.78;35.74;151039.22;5093693;28;20195;-54
2023/05/13 09:43:08;;;;;;;3.15;2.53;;;;;;;23.97;34.35;151084.88;5093690;28;20198;-55
2023/05/13 09:45:36;;;;;;;3.42;2.30;;;;;;;24.12;34.47;151123.00;5093752;28;20195;-55
2023/05/13 09:48:03;;;;;;;2.60;2.50;;;;;;;23.99;34.60;151091.25;5093547;28;20286;-54
2023/05/13 09:50:31;;;;;;;4.63;3.05;;;;;;;24.30;34.18;151168.75;5093487;28;20315;-53
2023/05/13 09:52:58;;;;;;;7.68;3.33;;;;;;;24.53;34.09;151227.16;5093576;28;20219;-55
2023/05/13 09:55:29;;;;;;;3.95;3.05;;;;;;;24.91;33.71;151321.16;5093814;28;20570;-56
2023/05/13 09:57:56;;;;;;;3.65;3.08;;;;;;;24.84;33.13;151303.34;5093695;28;20191;-54
2023/05/13 10:00:23;;;;;;;4.45;2.78;;;;;;;24.16;33.28;151133.13;5093631;28;20202;-55
2023/05/13 10:02:50;;;;;;;2.75;2.58;;;;;;;23.58;33.80;150988.44;5093729;28;20275;-55
2023/05/13 10:05:18;;;;;;;3.75;2.90;;;;;;;23.54;34.30;150978.25;5093563;28;20651;-52
2023/05/13 10:07:45;;;;;;;9.70;3.30;;;;;;;23.54;34.26;150978.25;5093267;28;20210;-52
2023/05/13 10:10:12;;;;;;;2.78;2.58;;;;;;;23.56;34.13;150982.09;5093347;28;20195;-53
2023/05/13 10:12:42;;;;;;;4.80;3.17;;;;;;;23.41;34.67;150945.22;5093126;28;20336;-55
2023/05/13 10:15:10;;;;;;;3.03;2.88;;;;;;;23.29;35.36;150916.03;5093289;28;20199;-55
2023/05/13 10:17:38;;;;;;;4.40;2.67;;;;;;;23.33;35.58;150926.19;5093415;28;20710;-55
2023/05/13 10:20:06;;;;;;;3.90;2.85;;;;;;;23.05;35.57;150856.38;5093377;28;20568;-56
2023/05/13 10:22:34;;;;;;;2.88;2.50;;;;;;;23.06;35.64;150857.66;5093117;28;20294;-55
2023/05/13 10:25:03;;;;;;;4.70;3.03;;;;;;;22.94;35.76;150828.47;5092945;28;20203;-55
2023/05/13 10:27:32;;;;;;;6.30;2.90;;;;;;;22.81;36.69;150796.72;5092930;28;20234;-55
2023/05/13 10:30:04;;;;;;;6.60;2.90;;;;;;;22.46;37.00;150709.16;5086088;28;20222;-57
2023/05/13 10:32:31;;;;;;;3.17;2.75;;;;;;;22.40;37.38;150692.69;5073486;28;20594;-55
2023/05/13 10:35:07;;;;;;;4.30;3.80;;;;;;;22.53;37.54;150725.69;5071911;28;20196;-55
2023/05/13 10:37:54;;;;;;;4.07;3.30;;;;;;;22.43;37.28;150701.59;5072652;28;20217;-55
2023/05/13 10:40:32;;;;;;;4.43;2.92;;;;;;;22.11;38.13;150619.16;5072546;28;20202;-55
2023/05/13 10:43:11;;;;;;;4.35;3.45;;;;;;;22.03;38.31;150600.09;5072371;28;20200;-55
2023/05/13 10:45:39;;;;;;;3.78;2.70;;;;;;;21.85;38.86;150555.69;5072466;28;20191;-56
2023/05/13 10:48:07;;;;;;;5.13;2.83;;;;;;;21.94;38.26;150577.25;5072477;28;20232;-55
2023/05/13 10:50:38;;;;;;;4.88;2.50;;;;;;;21.89;38.08;150564.59;5072218;28;20314;-55
2023/05/13 10:53:10;;;;;;;3.30;3.00;;;;;;;21.99;38.54;150591.25;5072364;28;20239;-57
2023/05/13 10:55:45;;;;;;;5.50;2.40;;;;;;;21.79;38.75;150539.19;5072551;28;20643;-54
2023/05/13 10:58:13;;;;;;;2.95;2.75;;;;;;;;;;5072358;28;20198;-54
2023/05/13 11:00:43;;;;;;;2.92;2.67;;;;;;;21.39;39.67;150440.34;5072194;28;20274;-54
2023/05/13 11:03:12;;;;;;;3.08;2.88;;;;;;;21.27;39.76;150411.19;5072332;28;20736;-54
2023/05/13 11:05:40;;;;;;;4.10;2.55;;;;;;;21.37;39.81;150436.53;5072501;28;20648;-54
2023/05/13 11:08:07;;;;;;;4.60;2.80;;;;;;;21.48;39.41;150463.16;5072138;28;20667;-53
2023/05/13 11:10:35;;;;;;;4.95;2.60;;;;;;;20.93;40.16;150324.97;5071981;28;20203;-53
2023/05/13 11:13:23;;;;;;;2.90;2.60;;;;;;;21.13;40.51;150375.63;5071772;28;20232;-55
2023/05/13 11:15:53;;;;;;;3.88;3.40;;;;;;;21.34;39.81;150427.66;5067356;28;20587;-55
2023/05/13 11:18:21;;;;;;;2.72;2.50;;;;;;;21.44;39.59;150451.75;5071784;28;20203;-54
2023/05/13 11:20:52;;;;;;;3.08;2.25;;;;;;;21.37;39.95;150436.53;5071905;28;20200;-54
2023/05/13 11:23:21;;;;;;;3.30;3.03;;;;;;;21.25;40.63;150406.09;5071621;28;20196;-55
2023/05/13 11:26:11;;;;;;;5.40;2.88;;;;;;;21.15;40.13;150380.72;5077055;28;20198;-55
2023/05/13 11:28:55;;;;;;;3.20;2.90;;;;;;;21.25;40.32;150404.84;5090912;28;20195;-52